This is the latest recevied weather packets stored in our database for station/object PU2PHK-13. If no packets are shown the sender has not sent any weather packets the latest 10 day(s).
| Time | Temp. | Humidity | Pressure | Rain* | Wind** | Luminosity | Snow |
|---|---|---|---|---|---|---|---|
| 1777459129 | 29.44° C | 52% | 1031.4 hPa | - | - | - | - |
| 1777458424 | 29.44° C | 52% | 1031.3 hPa | - | - | - | - |
| 1777457209 | 29.44° C | 52% | 1031.1 hPa | - | - | - | - |
| 1777456620 | 29.44° C | 52% | 1031.1 hPa | - | - | - | - |
| 1777456004 | 29.44° C | 52% | 1030.9 hPa | - | - | - | - |
| 1777455407 | 29.44° C | 52% | 1030.8 hPa | - | - | - | - |
| 1777454209 | 29.44° C | 52% | 1030.6 hPa | - | - | - | - |
| 1777454185 | 29.44° C | 52% | 1030.4 hPa | - | - | - | - |
| 1777453023 | 29.44° C | 53% | 1030.4 hPa | - | - | - | - |
| 1777452424 | 29.44° C | 53% | 1030.3 hPa | - | - | - | - |
| 1777452166 | 29.44° C | 53% | 1030.1 hPa | - | - | - | - |
| 1777449104 | 29.44° C | 53% | 1030.1 hPa | - | - | - | - |
| 1777445655 | 29.44° C | 53% | 1030.3 hPa | - | - | - | - |
| 1777409787 | 31.67° C | 48% | 1029.5 hPa | - | - | - | - |
| 1777409187 | 31.67° C | 48% | 1029.5 hPa | - | - | - | - |
| 1777408587 | 31.67° C | 48% | 1029.4 hPa | - | - | - | - |
| 1777406187 | 31.67° C | 47% | 1029.4 hPa | - | - | - | - |
| 1777405587 | 31.67° C | 47% | 1029.5 hPa | - | - | - | - |
| 1777404761 | 31.11° C | 47% | 1029.5 hPa | - | - | - | - |
| 1777403787 | 31.11° C | 49% | 1029.6 hPa | - | - | - | - |
| 1777403187 | 31.11° C | 49% | 1029.5 hPa | - | - | - | - |
| 1777402587 | 31.67° C | 49% | 1029.5 hPa | - | - | - | - |
| 1777388788 | 30° C | 54% | 1032.3 hPa | - | - | - | - |
| 1777388188 | 30° C | 55% | 1032.5 hPa | - | - | - | - |
| 1777384588 | 28.33° C | 60% | 1033.8 hPa | - | - | - | - |
* Rain since midnight (hover to see other rain measurements)
** Current wind speed in m/s (hover to see current wind gust speed)